MACH3 KMIA-CYYC
Flight info
| Callsign | MACH3 |
|---|---|
| Flight time | N/A |
| Altitude | 36000 |
| Route | FLMGO2 STYMY DCT ZERBO/N0466F350 Q87 VIYAP/N0460F360 DCT THRSR DCT DEPEC DCT NMANN DCT WELTS DCT HIBAV DCT KATES DCT GILTE/N0465F380 DCT PLVNA DCT GGW J478 YQL DCT ILOSA EBGAL7 |
| Aircraft | B752/M-SDE2E3FGHIJ3J4J7RWXY/LB1 |
Departure
| Time | N/A |
|---|---|
| Airport | Miami International Airport (KMIA) |
Arrival
| Time | 2026-04-29 01:18 |
|---|---|
| Airport | Calgary International Airport (CYYC) |
| Time | Latitude | Longitude | Altitude | Speed | Heading |
|---|---|---|---|---|---|
| 2026-04-29 00:47 | 49.31615 | -111.15542 | 36065 ft | 441 kts | 291° |
| 2026-04-29 00:47 | 49.32579 | -111.19959 | 36064 ft | 441 kts | 291° |
| 2026-04-29 00:48 | 49.34535 | -111.28957 | 36064 ft | 441 kts | 291° |
| 2026-04-29 00:48 | 49.36464 | -111.37867 | 36063 ft | 441 kts | 291° |
| 2026-04-29 00:49 | 49.38393 | -111.46819 | 36063 ft | 441 kts | 291° |
| 2026-04-29 00:49 | 49.40311 | -111.55756 | 36062 ft | 441 kts | 291° |
| 2026-04-29 00:50 | 49.42222 | -111.64697 | 36062 ft | 441 kts | 291° |
| 2026-04-29 00:50 | 49.44133 | -111.73687 | 36065 ft | 441 kts | 290° |
| 2026-04-29 00:51 | 49.45882 | -111.81941 | 36065 ft | 441 kts | 290° |
| 2026-04-29 00:51 | 49.47772 | -111.90903 | 36061 ft | 441 kts | 290° |
| 2026-04-29 00:52 | 49.49659 | -111.99889 | 36053 ft | 441 kts | 290° |
| 2026-04-29 00:52 | 49.50610 | -112.04436 | 35736 ft | 441 kts | 290° |
| 2026-04-29 00:52 | 49.51529 | -112.08846 | 35284 ft | 433 kts | 291° |
| 2026-04-29 00:52 | 49.52429 | -112.13171 | 34820 ft | 422 kts | 291° |
| 2026-04-29 00:53 | 49.53342 | -112.17557 | 34359 ft | 427 kts | 291° |
| 2026-04-29 00:53 | 49.54240 | -112.21881 | 33879 ft | 427 kts | 291° |
| 2026-04-29 00:53 | 49.55138 | -112.26222 | 33381 ft | 427 kts | 291° |
| 2026-04-29 00:53 | 49.56044 | -112.30606 | 32865 ft | 427 kts | 291° |
| 2026-04-29 00:54 | 49.56945 | -112.34975 | 32349 ft | 428 kts | 291° |
| 2026-04-29 00:54 | 49.57845 | -112.39351 | 31851 ft | 429 kts | 291° |
| 2026-04-29 00:54 | 49.58744 | -112.43733 | 31368 ft | 430 kts | 291° |
| 2026-04-29 00:54 | 49.59639 | -112.48105 | 30900 ft | 430 kts | 291° |
| 2026-04-29 00:55 | 49.60543 | -112.52532 | 30438 ft | 431 kts | 291° |
| 2026-04-29 00:55 | 49.61518 | -112.56897 | 29984 ft | 429 kts | 297° |
| 2026-04-29 00:55 | 49.62892 | -112.60927 | 29541 ft | 426 kts | 306° |
| 2026-04-29 00:55 | 49.64707 | -112.64532 | 29090 ft | 421 kts | 315° |
| 2026-04-29 00:56 | 49.66853 | -112.67509 | 28649 ft | 417 kts | 324° |
| 2026-04-29 00:56 | 49.69321 | -112.69856 | 28208 ft | 415 kts | 333° |
| 2026-04-29 00:56 | 49.71989 | -112.71546 | 27769 ft | 414 kts | 339° |
| 2026-04-29 00:56 | 49.74684 | -112.73066 | 27326 ft | 412 kts | 339° |
| 2026-04-29 00:57 | 49.77387 | -112.74600 | 26881 ft | 410 kts | 339° |
| 2026-04-29 00:57 | 49.80060 | -112.76115 | 26441 ft | 408 kts | 339° |
| 2026-04-29 00:57 | 49.82702 | -112.77611 | 26008 ft | 407 kts | 339° |
| 2026-04-29 00:57 | 49.85365 | -112.79118 | 25573 ft | 405 kts | 339° |
| 2026-04-29 00:58 | 49.87990 | -112.80605 | 25144 ft | 404 kts | 339° |
| 2026-04-29 00:58 | 49.90620 | -112.82097 | 24716 ft | 402 kts | 339° |
| 2026-04-29 00:58 | 49.93272 | -112.83601 | 24285 ft | 401 kts | 339° |
| 2026-04-29 00:58 | 49.95851 | -112.85067 | 23867 ft | 399 kts | 339° |
| 2026-04-29 00:59 | 49.98463 | -112.86552 | 23444 ft | 396 kts | 339° |
| 2026-04-29 00:59 | 50.01047 | -112.88023 | 23025 ft | 394 kts | 339° |
| 2026-04-29 00:59 | 50.03614 | -112.89487 | 22611 ft | 392 kts | 339° |
| 2026-04-29 00:59 | 50.06153 | -112.90936 | 22201 ft | 389 kts | 339° |
| 2026-04-29 01:00 | 50.08684 | -112.92381 | 21793 ft | 387 kts | 339° |
| 2026-04-29 01:00 | 50.11236 | -112.93841 | 21386 ft | 385 kts | 339° |
| 2026-04-29 01:00 | 50.13718 | -112.95261 | 20997 ft | 384 kts | 339° |
| 2026-04-29 01:00 | 50.16222 | -112.96697 | 20601 ft | 381 kts | 339° |
| 2026-04-29 01:01 | 50.18709 | -112.98124 | 20208 ft | 380 kts | 339° |
| 2026-04-29 01:01 | 50.21195 | -112.99552 | 19815 ft | 378 kts | 339° |
| 2026-04-29 01:01 | 50.23635 | -113.00954 | 19428 ft | 375 kts | 339° |
| 2026-04-29 01:01 | 50.26104 | -113.02377 | 19037 ft | 374 kts | 339° |
| 2026-04-29 01:02 | 50.28511 | -113.03764 | 18654 ft | 371 kts | 339° |
| 2026-04-29 01:02 | 50.30950 | -113.05171 | 18266 ft | 370 kts | 339° |
| 2026-04-29 01:02 | 50.33362 | -113.06564 | 17869 ft | 368 kts | 339° |
| 2026-04-29 01:02 | 50.35763 | -113.07952 | 17474 ft | 365 kts | 339° |
| 2026-04-29 01:03 | 50.38122 | -113.09319 | 17089 ft | 363 kts | 339° |
| 2026-04-29 01:03 | 50.40480 | -113.10684 | 16707 ft | 361 kts | 339° |
| 2026-04-29 01:03 | 50.42820 | -113.12042 | 16329 ft | 359 kts | 339° |
| 2026-04-29 01:03 | 50.45175 | -113.13409 | 15950 ft | 358 kts | 339° |
| 2026-04-29 01:04 | 50.47483 | -113.14751 | 15579 ft | 355 kts | 339° |
| 2026-04-29 01:04 | 50.49810 | -113.16105 | 15207 ft | 353 kts | 339° |
| 2026-04-29 01:04 | 50.52109 | -113.17445 | 14840 ft | 351 kts | 339° |
| 2026-04-29 01:04 | 50.54397 | -113.18779 | 14476 ft | 349 kts | 339° |
| 2026-04-29 01:05 | 50.56659 | -113.20100 | 14116 ft | 347 kts | 339° |
| 2026-04-29 01:05 | 50.58918 | -113.21442 | 13755 ft | 345 kts | 336° |
| 2026-04-29 01:05 | 50.60950 | -113.23349 | 13413 ft | 344 kts | 321° |
| 2026-04-29 01:05 | 50.62666 | -113.25932 | 13307 ft | 331 kts | 315° |
| 2026-04-29 01:06 | 50.64212 | -113.28384 | 13296 ft | 299 kts | 315° |
| 2026-04-29 01:06 | 50.65619 | -113.30629 | 13298 ft | 272 kts | 315° |
| 2026-04-29 01:06 | 50.66907 | -113.32696 | 13306 ft | 260 kts | 315° |
| 2026-04-29 01:06 | 50.68176 | -113.34742 | 13318 ft | 264 kts | 315° |
| 2026-04-29 01:07 | 50.69456 | -113.36803 | 13309 ft | 260 kts | 316° |
| 2026-04-29 01:07 | 50.70818 | -113.38729 | 13201 ft | 264 kts | 320° |
| 2026-04-29 01:07 | 50.72215 | -113.40615 | 12911 ft | 262 kts | 320° |
| 2026-04-29 01:07 | 50.73586 | -113.42477 | 12630 ft | 259 kts | 320° |
| 2026-04-29 01:08 | 50.74961 | -113.44347 | 12359 ft | 259 kts | 320° |
| 2026-04-29 01:08 | 50.76317 | -113.46191 | 12094 ft | 257 kts | 320° |
| 2026-04-29 01:08 | 50.77667 | -113.48029 | 11992 ft | 253 kts | 320° |
| 2026-04-29 01:08 | 50.79010 | -113.49860 | 12001 ft | 257 kts | 320° |
| 2026-04-29 01:09 | 50.80232 | -113.51924 | 11856 ft | 263 kts | 303° |
| 2026-04-29 01:09 | 50.81010 | -113.54578 | 11490 ft | 264 kts | 294° |
| 2026-04-29 01:09 | 50.81687 | -113.57297 | 11111 ft | 265 kts | 294° |
| 2026-04-29 01:09 | 50.82369 | -113.60002 | 10735 ft | 266 kts | 294° |
| 2026-04-29 01:10 | 50.83062 | -113.62718 | 10357 ft | 267 kts | 294° |
| 2026-04-29 01:10 | 50.83760 | -113.65424 | 9985 ft | 261 kts | 293° |
| 2026-04-29 01:10 | 50.84446 | -113.68064 | 9582 ft | 258 kts | 293° |
| 2026-04-29 01:10 | 50.85131 | -113.70668 | 9183 ft | 258 kts | 293° |
| 2026-04-29 01:11 | 50.85811 | -113.73335 | 8775 ft | 257 kts | 286° |
| 2026-04-29 01:11 | 50.85949 | -113.76113 | 8400 ft | 257 kts | 265° |
| 2026-04-29 01:11 | 50.85726 | -113.78933 | 8002 ft | 257 kts | 263° |
| 2026-04-29 01:11 | 50.85489 | -113.81747 | 7598 ft | 255 kts | 263° |
| 2026-04-29 01:12 | 50.85311 | -113.84520 | 7197 ft | 253 kts | 273° |
| 2026-04-29 01:12 | 50.85775 | -113.87141 | 6822 ft | 248 kts | 302° |
| 2026-04-29 01:12 | 50.86983 | -113.89030 | 6445 ft | 240 kts | 329° |
| 2026-04-29 01:12 | 50.88432 | -113.90236 | 6066 ft | 233 kts | 334° |
| 2026-04-29 01:13 | 50.89837 | -113.91348 | 5984 ft | 216 kts | 333° |
| 2026-04-29 01:13 | 50.91167 | -113.92405 | 6002 ft | 216 kts | 333° |
| 2026-04-29 01:13 | 50.92509 | -113.93472 | 5996 ft | 214 kts | 333° |
| 2026-04-29 01:13 | 50.93849 | -113.94540 | 6000 ft | 215 kts | 333° |
| 2026-04-29 01:14 | 50.95160 | -113.95585 | 5991 ft | 207 kts | 333° |
| 2026-04-29 01:14 | 50.96417 | -113.96589 | 5998 ft | 194 kts | 334° |
| 2026-04-29 01:14 | 50.97601 | -113.97537 | 6041 ft | 191 kts | 334° |
| 2026-04-29 01:14 | 50.98802 | -113.98498 | 5970 ft | 195 kts | 334° |
| 2026-04-29 01:15 | 51.00069 | -113.99046 | 5707 ft | 187 kts | 357° |
| 2026-04-29 01:15 | 51.01330 | -113.99047 | 5452 ft | 172 kts | 1° |
| 2026-04-29 01:15 | 51.02457 | -113.99043 | 5223 ft | 153 kts | 0° |
| 2026-04-29 01:15 | 51.03456 | -113.99047 | 5024 ft | 136 kts | 0° |
| 2026-04-29 01:16 | 51.04379 | -113.99049 | 4849 ft | 131 kts | 2° |
| 2026-04-29 01:16 | 51.05295 | -113.99047 | 4688 ft | 132 kts | 2° |
| 2026-04-29 01:16 | 51.06213 | -113.99044 | 4515 ft | 129 kts | 2° |
| 2026-04-29 01:16 | 51.07091 | -113.99027 | 4333 ft | 126 kts | 4° |
| 2026-04-29 01:17 | 51.07970 | -113.99015 | 4187 ft | 126 kts | 1° |
| 2026-04-29 01:17 | 51.08849 | -113.99026 | 4008 ft | 126 kts | 3° |
| 2026-04-29 01:17 | 51.09717 | -113.99023 | 3852 ft | 128 kts | 1° |
| 2026-04-29 01:17 | 51.10633 | -113.99041 | 3703 ft | 131 kts | 3° |
| 2026-04-29 01:18 | 51.11503 | -113.99025 | 3562 ft | 109 kts | 359° |
| 2026-04-29 01:18 | 51.12378 | -113.99113 | 3575 ft | 42 kts | 333° |
| 2026-04-29 01:18 | 51.12503 | -113.99227 | 3578 ft | 13 kts | 329° |
| 2026-04-29 01:19 | 51.12563 | -113.99285 | 3579 ft | 6 kts | 330° |
| 2026-04-29 01:19 | 51.12597 | -113.99326 | 3580 ft | 6 kts | 307° |
| 2026-04-29 01:19 | 51.12612 | -113.99402 | 3579 ft | 7 kts | 278° |
| 2026-04-29 01:19 | 51.12612 | -113.99486 | 3578 ft | 7 kts | 268° |
| 2026-04-29 01:20 | 51.12613 | -113.99558 | 3578 ft | 6 kts | 271° |
| 2026-04-29 01:20 | 51.12613 | -113.99636 | 3578 ft | 8 kts | 270° |
| 2026-04-29 01:20 | 51.12613 | -113.99761 | 3578 ft | 13 kts | 269° |
| 2026-04-29 01:20 | 51.12614 | -113.99966 | 3569 ft | 23 kts | 270° |
| 2026-04-29 01:21 | 51.12613 | -114.00226 | 3567 ft | 23 kts | 271° |
| 2026-04-29 01:21 | 51.12613 | -114.00478 | 3564 ft | 22 kts | 271° |
| 2026-04-29 01:21 | 51.12613 | -114.00723 | 3562 ft | 22 kts | 269° |
| 2026-04-29 01:21 | 51.12613 | -114.00970 | 3560 ft | 22 kts | 269° |
| 2026-04-29 01:22 | 51.12598 | -114.01188 | 3554 ft | 15 kts | 239° |
| 2026-04-29 01:22 | 51.12505 | -114.01228 | 3554 ft | 13 kts | 181° |
| 2026-04-29 01:22 | 51.12455 | -114.01151 | 3554 ft | 4 kts | 94° |
| 2026-04-29 01:22 | 51.12454 | -114.01150 | 3554 ft | 0 kts | 93° |
| 2026-04-29 01:23 | 51.12454 | -114.01128 | 3555 ft | 0 kts | 91° |